Airport View

Enter AWOS ICAO identifier for current METAR.

ex. KFNL

KSYI 080335Z AUTO 00000KT 10SM CLR 23/22 A2999 RMK A01

8 Jul 2020 04:02

Frequency: 119.275

Phone: 931-685-4723

Other Area AWOS: KTHA - KLUG - KMBT - KMQY

TAF KBNA 072320Z 0800/0824 36003KT P6SM VCSH SCT050 BKN150 FM080200 05002KT P6SM FEW050 SCT150 FM081000 00000KT 5SM BR SCT250 FM081300 08003KT P6SM SCT050 BKN120 PROB30 0818/0822 5SM -TSRA BKN050CB